Time;durP1;ratioP1;P1;durP2;ratioP2;P2;SDS_P1;SDS_P2;PMS_P1;PMS_P2;Temp;Humidity;BMP_temperature;BMP_pressure;BME280_temperature;BME280_humidity;BME280_pressure;Samples;Min_cycle;Max_cycle;Signal;HPM_P1;HPM_P2
2022/01/24 00:02:02;;;;;;;;;;;6.60;99.90;;;;;;8358792;28;19979;-72
2022/01/24 00:06:06;;;;;;;;;;;6.60;99.90;;;;;;8372821;28;20288;-72
2022/01/24 00:10:13;;;;;;;;;;;6.60;99.90;;;;;;8362022;28;19924;-72
2022/01/24 00:26:41;;;;;;;;;;;6.50;99.90;;;;;;8393976;28;19974;-72
2022/01/24 00:27:19;;;;;;;;;;;6.50;99.90;;;;;;8350007;28;19936;-72
2022/01/24 00:31:21;;;;;;;;;;;6.50;99.90;;;;;;8372463;28;19947;-73
2022/01/24 00:35:23;;;;;;;;;;;6.50;99.90;;;;;;8388169;28;19952;-72
2022/01/24 00:39:24;;;;;;;;;;;6.50;99.90;;;;;;8401217;28;19965;-73
2022/01/24 00:43:32;;;;;;;;;;;6.50;99.90;;;;;;8392655;28;20004;-73
2022/01/24 00:56:14;;;;;;;;;;;6.40;99.90;;;;;;8390750;28;19931;-72
2022/01/24 01:00:16;;;;;;;;;;;6.50;99.90;;;;;;8376464;28;19967;-72
2022/01/24 01:04:20;;;;;;;;;;;6.40;99.90;;;;;;8387512;28;19924;-72
2022/01/24 01:21:22;;;;;;;;;;;6.50;99.90;;;;;;8392573;28;20018;-73
2022/01/24 01:25:24;;;;;;;;;;;6.40;99.90;;;;;;8388088;28;19932;-72
2022/01/24 01:29:30;;;;;;;;;;;6.50;99.90;;;;;;8370101;28;19972;-72
2022/01/24 01:33:57;;;;;;;;;;;6.50;99.90;;;;;;8358566;28;19932;-72
2022/01/24 01:55:39;;;;;;;;;;;6.40;99.90;;;;;;8382629;28;19928;-72
2022/01/24 01:59:41;;;;;;;;;;;6.40;99.90;;;;;;8377892;28;20370;-72
2022/01/24 02:03:42;;;;;;;;;;;6.40;99.90;;;;;;8370103;28;19970;-72
2022/01/24 02:07:45;;;;;;;;;;;6.40;99.90;;;;;;8387951;28;19924;-73
2022/01/24 02:11:52;;;;;;;;;;;6.40;99.90;;;;;;8378267;28;20408;-72
2022/01/24 02:16:16;;;;;;;;;;;6.30;99.90;;;;;;8369165;28;20047;-73
2022/01/24 02:24:24;;;;;;;;;;;6.30;99.90;;;;;;8383146;28;19955;-73
2022/01/24 02:28:30;;;;;;;;;;;6.30;99.90;;;;;;8385616;28;19928;-72
2022/01/24 02:32:35;;;;;;;;;;;6.30;99.90;;;;;;8388940;28;19974;-72
2022/01/24 02:36:37;;;;;;;;;;;6.30;99.90;;;;;;8382525;28;19952;-72
2022/01/24 02:40:39;;;;;;;;;;;6.30;99.90;;;;;;8383918;28;19924;-72
2022/01/24 02:49:04;;;;;;;;;;;6.30;99.90;;;;;;8376340;28;20035;-72
2022/01/24 02:53:06;;;;;;;;;;;6.30;99.90;;;;;;8382020;28;19960;-72
2022/01/24 02:57:08;;;;;;;;;;;6.30;99.90;;;;;;8384883;28;19978;-72
2022/01/24 03:01:10;;;;;;;;;;;6.30;99.90;;;;;;8384335;28;19975;-73
2022/01/24 03:05:11;;;;;;;;;;;6.20;99.90;;;;;;8380990;28;19959;-72
2022/01/24 03:09:14;;;;;;;;;;;6.20;99.90;;;;;;8382780;28;20020;-73
2022/01/24 03:17:27;;;;;;;;;;;6.20;99.90;;;;;;8384790;28;19925;-73
2022/01/24 03:21:28;;;;;;;;;;;6.20;99.90;;;;;;8354854;28;19924;-73
2022/01/24 03:25:30;;;;;;;;;;;6.20;99.90;;;;;;8386730;28;20257;-72
2022/01/24 03:29:33;;;;;;;;;;;6.10;99.90;;;;;;8374820;28;19924;-72
2022/01/24 03:33:34;;;;;;;;;;;6.10;99.90;;;;;;8378457;28;20281;-72
2022/01/24 03:37:36;;;;;;;;;;;6.10;99.90;;;;;;8384444;28;19979;-73
2022/01/24 03:41:39;;;;;;;;;;;6.10;99.90;;;;;;8373426;28;19960;-73
2022/01/24 03:45:44;;;;;;;;;;;6.10;99.90;;;;;;8384029;28;19932;-72
2022/01/24 03:49:48;;;;;;;;;;;6.10;99.90;;;;;;8374950;28;19932;-73
2022/01/24 03:53:50;;;;;;;;;;;6.10;99.90;;;;;;8389958;28;20296;-72
2022/01/24 03:57:51;;;;;;;;;;;6.10;99.90;;;;;;8373861;28;20419;-72
2022/01/24 04:01:53;;;;;;;;;;;6.10;99.90;;;;;;8384468;28;19998;-73
2022/01/24 04:05:55;;;;;;;;;;;6.10;99.90;;;;;;8397055;28;19932;-73
2022/01/24 04:10:01;;;;;;;;;;;6.10;99.90;;;;;;8378486;28;20031;-72
2022/01/24 04:14:23;;;;;;;;;;;6.10;99.90;;;;;;8395088;28;19968;-75
2022/01/24 04:19:24;;;;;;;;;;;6.10;99.90;;;;;;8384690;28;19940;-73
2022/01/24 04:22:55;;;;;;;;;;;6.00;99.90;;;;;;8388974;28;19932;-72
2022/01/24 04:26:57;;;;;;;;;;;6.00;99.90;;;;;;8370600;28;20387;-72
2022/01/24 04:30:58;;;;;;;;;;;6.00;99.90;;;;;;8376077;28;19940;-72
2022/01/24 04:35:00;;;;;;;;;;;6.10;99.90;;;;;;8387276;28;20037;-73
2022/01/24 04:39:03;;;;;;;;;;;6.00;99.90;;;;;;8390236;28;20386;-72
2022/01/24 04:43:27;;;;;;;;;;;6.00;99.90;;;;;;8363306;28;20027;-73
2022/01/24 04:47:33;;;;;;;;;;;6.00;99.90;;;;;;8379069;28;19938;-72
2022/01/24 04:51:50;;;;;;;;;;;6.00;99.90;;;;;;8388396;28;19924;-72
2022/01/24 04:55:52;;;;;;;;;;;6.00;99.90;;;;;;8381593;28;19925;-72
2022/01/24 04:59:55;;;;;;;;;;;5.90;99.90;;;;;;8385415;28;19928;-72
2022/01/24 05:03:57;;;;;;;;;;;6.00;99.90;;;;;;8375176;28;19929;-72
2022/01/24 05:08:03;;;;;;;;;;;5.90;99.90;;;;;;8382738;28;19971;-72
2022/01/24 05:12:25;;;;;;;;;;;5.90;99.90;;;;;;8379983;28;19978;-72
2022/01/24 05:25:07;;;;;;;;;;;5.90;99.90;;;;;;8386990;28;19933;-72
2022/01/24 05:29:09;;;;;;;;;;;5.90;99.90;;;;;;8384985;28;20291;-72
2022/01/24 05:33:10;;;;;;;;;;;5.90;99.90;;;;;;8390968;28;20283;-72
2022/01/24 05:37:12;;;;;;;;;;;5.90;99.90;;;;;;8390437;28;20026;-73
2022/01/24 05:41:14;;;;;;;;;;;5.90;99.90;;;;;;8391781;28;20448;-72
2022/01/24 05:45:16;;;;;;;;;;;5.90;99.90;;;;;;8374598;28;19958;-73
2022/01/24 05:49:17;;;;;;;;;;;5.90;99.90;;;;;;8359899;28;19975;-73
2022/01/24 05:53:19;;;;;;;;;;;5.90;99.90;;;;;;8368174;28;19929;-73
2022/01/24 05:57:20;;;;;;;;;;;5.90;99.90;;;;;;8363739;28;19974;-73
2022/01/24 06:01:22;;;;;;;;;;;5.80;99.90;;;;;;8391144;28;20024;-73
2022/01/24 06:05:24;;;;;;;;;;;5.90;99.90;;;;;;8381567;28;19956;-73
2022/01/24 06:09:26;;;;;;;;;;;5.90;99.90;;;;;;8389360;28;19928;-72
2022/01/24 06:13:28;;;;;;;;;;;5.90;99.90;;;;;;8384841;28;19948;-73
2022/01/24 06:17:29;;;;;;;;;;;5.80;99.90;;;;;;8393501;28;21412;-73
2022/01/24 06:21:31;;;;;;;;;;;5.90;99.90;;;;;;8392747;28;19928;-72
2022/01/24 06:25:33;;;;;;;;;;;5.80;99.90;;;;;;8377516;28;19971;-72
2022/01/24 06:29:34;;;;;;;;;;;5.80;99.90;;;;;;8393407;28;20451;-73
2022/01/24 06:33:36;;;;;;;;;;;5.80;99.90;;;;;;8386208;28;19925;-72
2022/01/24 06:37:37;;;;;;;;;;;5.90;99.90;;;;;;8367858;28;20388;-72
2022/01/24 06:41:41;;;;;;;;;;;5.90;99.90;;;;;;8373289;28;19924;-72
2022/01/24 06:45:43;;;;;;;;;;;5.90;99.90;;;;;;8381232;28;19947;-73
2022/01/24 06:49:45;;;;;;;;;;;5.90;99.90;;;;;;8383955;28;19928;-73
2022/01/24 06:53:48;;;;;;;;;;;5.80;99.90;;;;;;8389478;28;19924;-73
2022/01/24 06:57:53;;;;;;;;;;;5.80;99.90;;;;;;8374712;28;19929;-73
2022/01/24 07:01:54;;;;;;;;;;;5.90;99.90;;;;;;8373617;28;19925;-73
2022/01/24 07:05:56;;;;;;;;;;;5.90;99.90;;;;;;8394256;28;19925;-72
2022/01/24 07:09:58;;;;;;;;;;;5.80;99.90;;;;;;8383496;28;19995;-73
2022/01/24 07:14:14;;;;;;;;;;;5.80;99.90;;;;;;8390765;28;19931;-73
2022/01/24 07:19:03;;;;;;;;;;;5.80;99.90;;;;;;8371486;28;19929;-73
2022/01/24 07:22:38;;;;;;;;;;;5.80;99.90;;;;;;8383267;28;19973;-73
2022/01/24 07:26:40;;;;;;;;;;;5.80;99.90;;;;;;8387372;28;19924;-73
2022/01/24 07:30:42;;;;;;;;;;;5.80;99.90;;;;;;8366411;28;19933;-73
2022/01/24 07:34:44;;;;;;;;;;;5.70;99.90;;;;;;8388943;28;19931;-72
2022/01/24 07:38:45;;;;;;;;;;;5.70;99.90;;;;;;8382076;28;20363;-73
2022/01/24 07:47:08;;;;;;;;;;;5.70;99.90;;;;;;8379965;28;19968;-73
2022/01/24 07:51:10;;;;;;;;;;;5.70;99.90;;;;;;8368048;28;19924;-73
2022/01/24 07:55:12;;;;;;;;;;;5.80;99.90;;;;;;8388904;28;20299;-72
2022/01/24 07:59:15;;;;;;;;;;;5.80;99.90;;;;;;8367569;28;19964;-72
2022/01/24 08:03:16;;;;;;;;;;;5.80;99.90;;;;;;8365886;28;19928;-72
2022/01/24 08:07:18;;;;;;;;;;;5.70;99.90;;;;;;8366366;28;19964;-73
2022/01/24 08:11:20;;;;;;;;;;;5.70;99.90;;;;;;8383685;28;19994;-72
2022/01/24 08:15:21;;;;;;;;;;;5.70;99.90;;;;;;8365370;28;20133;-73
2022/01/24 08:19:23;;;;;;;;;;;5.70;99.90;;;;;;8390306;28;19924;-72
2022/01/24 08:23:27;;;;;;;;;;;5.80;99.90;;;;;;8387052;28;19932;-72
2022/01/24 08:27:29;;;;;;;;;;;5.80;99.90;;;;;;8370823;28;19924;-73
2022/01/24 08:31:31;;;;;;;;;;;5.80;99.90;;;;;;8386392;28;21241;-73
2022/01/24 08:35:32;;;;;;;;;;;5.80;99.90;;;;;;8388716;28;19928;-73
2022/01/24 08:39:34;;;;;;;;;;;5.80;99.90;;;;;;8389301;28;19933;-72
2022/01/24 08:43:39;;;;;;;;;;;5.80;99.90;;;;;;8394712;28;19932;-72
2022/01/24 08:47:42;;;;;;;;;;;5.80;99.90;;;;;;8388050;28;19986;-73
2022/01/24 08:51:45;;;;;;;;;;;5.80;99.90;;;;;;8391672;28;19997;-72
2022/01/24 08:56:06;;;;;;;;;;;5.80;99.90;;;;;;8381701;28;19924;-72
2022/01/24 09:00:07;;;;;;;;;;;5.80;99.90;;;;;;8384075;28;20300;-72
2022/01/24 09:04:09;;;;;;;;;;;5.80;99.90;;;;;;8385636;28;19929;-72
2022/01/24 09:08:11;;;;;;;;;;;5.80;99.90;;;;;;8391581;28;19924;-72
2022/01/24 09:12:12;;;;;;;;;;;5.80;99.90;;;;;;8395576;28;19928;-72
2022/01/24 09:16:14;;;;;;;;;;;5.90;99.90;;;;;;8387425;28;19925;-72
2022/01/24 09:20:16;;;;;;;;;;;5.80;99.90;;;;;;8375963;28;19967;-73
2022/01/24 09:24:17;;;;;;;;;;;5.90;99.90;;;;;;8396369;28;19924;-72
2022/01/24 09:28:19;;;;;;;;;;;5.90;99.90;;;;;;8391251;28;19925;-72
2022/01/24 09:32:21;;;;;;;;;;;5.90;99.90;;;;;;8392077;28;19924;-72
2022/01/24 09:36:23;;;;;;;;;;;5.90;99.90;;;;;;8375340;28;19924;-72
2022/01/24 09:40:25;;;;;;;;;;;5.90;99.90;;;;;;8391611;28;19924;-72
2022/01/24 09:44:26;;;;;;;;;;;5.90;99.90;;;;;;8386920;28;19929;-72
2022/01/24 09:48:29;;;;;;;;;;;5.90;99.90;;;;;;8392251;28;19968;-72
2022/01/24 09:52:31;;;;;;;;;;;6.00;99.90;;;;;;8375319;28;20300;-72
2022/01/24 09:56:34;;;;;;;;;;;6.00;99.90;;;;;;8391026;28;19931;-72
2022/01/24 10:00:37;;;;;;;;;;;6.10;99.90;;;;;;8383756;28;19924;-73
2022/01/24 10:04:39;;;;;;;;;;;6.10;99.90;;;;;;8368444;28;19939;-73
2022/01/24 10:08:41;;;;;;;;;;;6.10;99.90;;;;;;8374250;28;19982;-72
2022/01/24 10:16:45;;;;;;;;;;;6.20;99.90;;;;;;8390258;28;20304;-72
2022/01/24 10:20:46;;;;;;;;;;;6.10;99.90;;;;;;8376231;28;19936;-73
2022/01/24 10:24:56;;;;;;;;;;;6.10;99.90;;;;;;8389656;28;19925;-72
2022/01/24 10:28:57;;;;;;;;;;;6.20;99.90;;;;;;8390462;28;19931;-72
2022/01/24 10:33:01;;;;;;;;;;;6.20;99.90;;;;;;8396993;28;20008;-72
2022/01/24 10:37:03;;;;;;;;;;;6.20;99.90;;;;;;8389025;28;20318;-73
2022/01/24 10:45:21;;;;;;;;;;;6.10;99.90;;;;;;8388911;28;19936;-73
2022/01/24 10:49:30;;;;;;;;;;;6.20;99.90;;;;;;8388197;28;19936;-72
2022/01/24 10:53:43;;;;;;;;;;;6.20;99.90;;;;;;8399988;28;19978;-72
2022/01/24 10:57:46;;;;;;;;;;;6.30;99.90;;;;;;8383339;28;19924;-72
2022/01/24 11:01:52;;;;;;;;;;;6.30;99.90;;;;;;8386973;28;19967;-72
2022/01/24 11:05:54;;;;;;;;;;;6.30;99.90;;;;;;8391645;28;19933;-72
2022/01/24 11:10:01;;;;;;;;;;;6.20;99.90;;;;;;8375789;28;20359;-73
2022/01/24 11:14:02;;;;;;;;;;;6.20;99.90;;;;;;8364958;28;20364;-72
2022/01/24 11:18:05;;;;;;;;;;;6.20;99.90;;;;;;8383083;28;20620;-73
2022/01/24 11:22:18;;;;;;;;;;;6.20;99.90;;;;;;8363844;28;19929;-72
2022/01/24 11:26:20;;;;;;;;;;;6.30;99.90;;;;;;8386396;28;20039;-72
2022/01/24 11:30:22;;;;;;;;;;;6.30;99.90;;;;;;8393259;28;19928;-73
2022/01/24 11:34:35;;;;;;;;;;;6.30;99.90;;;;;;8399115;28;20403;-73
2022/01/24 11:38:43;;;;;;;;;;;6.40;99.90;;;;;;8385322;28;19976;-73
2022/01/24 11:42:47;;;;;;;;;;;6.40;99.90;;;;;;8370316;28;20301;-72
2022/01/24 11:47:17;;;;;;;;;;;6.40;99.90;;;;;;8385578;28;19929;-72
2022/01/24 11:51:29;;;;;;;;;;;6.30;99.90;;;;;;8388313;28;19983;-72
2022/01/24 11:55:34;;;;;;;;;;;6.30;99.90;;;;;;8385313;28;19939;-72
2022/01/24 11:59:35;;;;;;;;;;;6.30;99.90;;;;;;8387646;28;19983;-73
2022/01/24 12:03:48;;;;;;;;;;;6.30;99.90;;;;;;8365686;28;19986;-72
2022/01/24 12:07:52;;;;;;;;;;;6.30;99.90;;;;;;8383544;28;19937;-73
2022/01/24 12:11:54;;;;;;;;;;;6.30;99.90;;;;;;8392338;28;19939;-73
2022/01/24 12:16:15;;;;;;;;;;;6.30;99.90;;;;;;8365831;28;19935;-72
2022/01/24 12:20:33;;;;;;;;;;;6.30;99.90;;;;;;8391781;28;19940;-72
2022/01/24 12:24:42;;;;;;;;;;;6.30;99.90;;;;;;8391289;28;19931;-72
2022/01/24 12:28:46;;;;;;;;;;;6.30;99.90;;;;;;8374403;28;20002;-72
2022/01/24 12:32:52;;;;;;;;;;;6.30;99.90;;;;;;8387659;28;20281;-72
2022/01/24 12:37:00;;;;;;;;;;;6.30;99.90;;;;;;8390034;28;19928;-72
2022/01/24 12:41:13;;;;;;;;;;;6.40;99.90;;;;;;8391655;28;19928;-72
2022/01/24 12:49:40;;;;;;;;;;;6.40;99.90;;;;;;8386706;28;19928;-72
2022/01/24 12:53:42;;;;;;;;;;;6.40;99.90;;;;;;8386216;28;19925;-72
2022/01/24 12:57:44;;;;;;;;;;;6.40;99.90;;;;;;8368064;28;20372;-72
2022/01/24 13:01:45;;;;;;;;;;;6.40;99.90;;;;;;8387016;28;19964;-72
2022/01/24 13:05:47;;;;;;;;;;;6.40;99.90;;;;;;8390881;28;19924;-72
2022/01/24 13:09:49;;;;;;;;;;;6.30;99.90;;;;;;8390785;28;19970;-72
2022/01/24 13:14:08;;;;;;;;;;;6.20;99.90;;;;;;8391293;28;19929;-72
2022/01/24 13:26:38;;;;;;;;;;;6.20;99.90;;;;;;8388883;28;19972;-72
2022/01/24 13:30:45;;;;;;;;;;;6.10;99.90;;;;;;8388808;28;19978;-72
2022/01/24 13:34:47;;;;;;;;;;;6.20;99.90;;;;;;8374253;28;19975;-72
2022/01/24 13:38:49;;;;;;;;;;;6.20;99.90;;;;;;8371808;28;20006;-72
2022/01/24 13:42:54;;;;;;;;;;;6.00;99.90;;;;;;8369278;28;20300;-72
2022/01/24 13:46:56;;;;;;;;;;;6.00;99.90;;;;;;8391046;28;19964;-72
2022/01/24 13:50:58;;;;;;;;;;;6.10;99.90;;;;;;8386912;28;19924;-72
2022/01/24 13:55:16;;;;;;;;;;;6.10;99.90;;;;;;8389079;28;19928;-73
2022/01/24 13:59:19;;;;;;;;;;;6.10;99.90;;;;;;8390387;28;19964;-72
2022/01/24 14:03:21;;;;;;;;;;;6.20;99.90;;;;;;8381627;28;19924;-73
2022/01/24 14:07:28;;;;;;;;;;;6.20;99.90;;;;;;8390337;28;19928;-72
2022/01/24 14:11:29;;;;;;;;;;;6.30;99.90;;;;;;8373340;28;19931;-73
2022/01/24 14:15:48;;;;;;;;;;;6.30;99.90;;;;;;8380920;28;19931;-73
2022/01/24 14:19:54;;;;;;;;;;;6.30;99.90;;;;;;8385672;28;19928;-72
2022/01/24 14:23:55;;;;;;;;;;;6.30;99.90;;;;;;8390160;28;19928;-72
2022/01/24 14:28:04;;;;;;;;;;;6.20;99.90;;;;;;8390496;28;19925;-72
2022/01/24 14:32:13;;;;;;;;;;;6.10;99.90;;;;;;8388266;28;19972;-72
2022/01/24 14:36:16;;;;;;;;;;;6.20;99.90;;;;;;8369924;28;19928;-72
2022/01/24 14:40:30;;;;;;;;;;;6.20;99.90;;;;;;8372939;28;19924;-72
2022/01/24 14:49:06;;;;;;;;;;;6.20;99.90;;;;;;8387550;28;19968;-72
2022/01/24 14:53:08;;;;;;;;;;;6.20;99.90;;;;;;8393785;28;19925;-73
2022/01/24 14:57:12;;;;;;;;;;;6.20;99.90;;;;;;8381833;28;19928;-72
2022/01/24 15:01:14;;;;;;;;;;;6.20;99.90;;;;;;8381251;28;19947;-72
2022/01/24 15:05:17;;;;;;;;;;;6.20;99.90;;;;;;8365290;28;19939;-72
2022/01/24 15:09:23;;;;;;;;;;;6.20;99.90;;;;;;8387575;28;19924;-72
2022/01/24 15:13:31;;;;;;;;;;;6.20;99.90;;;;;;8383579;28;19929;-72
2022/01/24 15:23:56;;;;;;;;;;;6.20;99.90;;;;;;8383277;28;19975;-72
2022/01/24 15:26:24;;;;;;;;;;;6.20;99.90;;;;;;8388855;28;20291;-72
2022/01/24 15:30:26;;;;;;;;;;;6.20;99.90;;;;;;8387705;28;19940;-72
2022/01/24 15:34:33;;;;;;;;;;;6.20;99.90;;;;;;8395588;28;19931;-72
2022/01/24 15:38:37;;;;;;;;;;;6.20;99.90;;;;;;8382017;28;19932;-72
2022/01/24 15:43:06;;;;;;;;;;;6.20;99.90;;;;;;8369593;28;19964;-72
2022/01/24 15:47:19;;;;;;;;;;;6.10;99.90;;;;;;8398673;28;19925;-72
2022/01/24 15:51:21;;;;;;;;;;;6.10;99.90;;;;;;8397687;28;20360;-72
2022/01/24 15:55:27;;;;;;;;;;;6.10;99.90;;;;;;8359975;28;19929;-72
2022/01/24 15:59:28;;;;;;;;;;;6.10;99.90;;;;;;8359417;28;19929;-73
2022/01/24 16:03:30;;;;;;;;;;;6.10;99.90;;;;;;8362525;28;20403;-72
2022/01/24 16:07:33;;;;;;;;;;;6.10;99.90;;;;;;8363485;28;19924;-72
2022/01/24 16:11:35;;;;;;;;;;;6.00;99.90;;;;;;8367453;28;19928;-72
2022/01/24 16:15:56;;;;;;;;;;;6.10;99.90;;;;;;8370974;28;20665;-72
2022/01/24 16:20:00;;;;;;;;;;;6.00;99.90;;;;;;8367043;28;19936;-73
2022/01/24 16:25:20;;;;;;;;;;;6.00;99.90;;;;;;8361598;28;19932;-72
2022/01/24 16:28:28;;;;;;;;;;;6.00;99.90;;;;;;8367462;28;19933;-72
2022/01/24 16:32:30;;;;;;;;;;;5.90;99.90;;;;;;8371254;28;20020;-72
2022/01/24 16:36:32;;;;;;;;;;;5.90;99.90;;;;;;8378624;28;19932;-72
2022/01/24 16:40:42;;;;;;;;;;;5.90;99.90;;;;;;8364351;28;19964;-72
2022/01/24 16:45:14;;;;;;;;;;;5.90;99.90;;;;;;8362914;28;20407;-72
2022/01/24 16:49:18;;;;;;;;;;;5.90;99.90;;;;;;8352813;28;19925;-72
2022/01/24 16:53:20;;;;;;;;;;;5.90;99.90;;;;;;8367298;28;20377;-72
2022/01/24 16:57:22;;;;;;;;;;;5.90;99.90;;;;;;8363397;28;20059;-72
2022/01/24 17:01:24;;;;;;;;;;;5.80;99.90;;;;;;8358559;28;20031;-72
2022/01/24 17:05:25;;;;;;;;;;;5.80;99.90;;;;;;8364123;28;20276;-72
2022/01/24 17:09:27;;;;;;;;;;;5.80;99.90;;;;;;8361716;28;19975;-72
2022/01/24 17:13:29;;;;;;;;;;;5.90;99.90;;;;;;8364036;28;20364;-72
2022/01/24 17:17:31;;;;;;;;;;;5.80;99.90;;;;;;8366236;28;20055;-72
2022/01/24 17:21:34;;;;;;;;;;;5.90;99.90;;;;;;8348023;28;19967;-72
2022/01/24 17:25:56;;;;;;;;;;;5.90;99.90;;;;;;8358337;28;20380;-72
2022/01/24 17:29:58;;;;;;;;;;;5.80;99.90;;;;;;8351339;28;19968;-72
2022/01/24 17:34:19;;;;;;;;;;;5.80;99.90;;;;;;8364197;28;19929;-72
2022/01/24 17:38:22;;;;;;;;;;;5.80;99.90;;;;;;8358945;28;20367;-72
2022/01/24 17:42:24;;;;;;;;;;;5.80;99.90;;;;;;8362759;28;20024;-72
2022/01/24 17:46:26;;;;;;;;;;;5.80;99.90;;;;;;8340465;28;19983;-72
2022/01/24 17:50:28;;;;;;;;;;;5.70;99.90;;;;;;8361868;28;19925;-72
2022/01/24 17:54:30;;;;;;;;;;;5.70;99.90;;;;;;8362796;28;20305;-72
2022/01/24 17:58:32;;;;;;;;;;;5.70;99.90;;;;;;8362612;28;20364;-73
2022/01/24 18:02:33;;;;;;;;;;;5.70;99.90;;;;;;8361926;28;19967;-72
2022/01/24 18:06:36;;;;;;;;;;;5.70;99.90;;;;;;8356276;28;19932;-73
2022/01/24 18:10:40;;;;;;;;;;;5.70;99.90;;;;;;8358193;28;19931;-72
2022/01/24 18:14:42;;;;;;;;;;;5.70;99.90;;;;;;8361758;28;20067;-72
2022/01/24 18:18:44;;;;;;;;;;;5.70;99.90;;;;;;8343092;28;19933;-74
2022/01/24 18:22:45;;;;;;;;;;;5.70;99.90;;;;;;8356475;28;20082;-73
2022/01/24 18:26:50;;;;;;;;;;;5.60;99.90;;;;;;8339642;28;19978;-72
2022/01/24 18:30:51;;;;;;;;;;;5.60;99.90;;;;;;8341200;28;20003;-72
2022/01/24 18:34:53;;;;;;;;;;;5.60;99.90;;;;;;8359630;28;19939;-73
2022/01/24 18:38:54;;;;;;;;;;;5.60;99.90;;;;;;8356024;28;20380;-72
2022/01/24 18:42:56;;;;;;;;;;;5.60;99.90;;;;;;8360904;28;19968;-72
2022/01/24 18:46:58;;;;;;;;;;;5.60;99.90;;;;;;8357931;28;19939;-72
2022/01/24 18:51:00;;;;;;;;;;;5.60;99.90;;;;;;8366892;28;19929;-72
2022/01/24 18:55:01;;;;;;;;;;;5.60;99.90;;;;;;8354848;28;19968;-72
2022/01/24 18:59:03;;;;;;;;;;;5.60;99.90;;;;;;8340297;28;19963;-72
2022/01/24 19:03:05;;;;;;;;;;;5.60;99.90;;;;;;8369174;28;19933;-72
2022/01/24 19:07:07;;;;;;;;;;;5.50;99.90;;;;;;8356421;28;19936;-71
2022/01/24 19:11:10;;;;;;;;;;;5.60;99.90;;;;;;8361689;28;19925;-72
2022/01/24 19:15:14;;;;;;;;;;;5.60;99.90;;;;;;8343462;28;19959;-72
2022/01/24 19:23:08;;;;;;;;;;;5.60;99.90;;;;;;8355109;28;19972;-72
2022/01/24 19:23:38;;;;;;;;;;;5.50;99.90;;;;;;8347194;28;19960;-72
2022/01/24 19:27:41;;;;;;;;;;;5.60;99.90;;;;;;8355142;28;20018;-72
2022/01/24 19:31:43;;;;;;;;;;;5.60;99.90;;;;;;8353605;28;20264;-72
2022/01/24 19:35:49;;;;;;;;;;;5.60;99.90;;;;;;8356183;28;19974;-72
2022/01/24 19:39:50;;;;;;;;;;;5.50;99.90;;;;;;8358995;28;19960;-72
2022/01/24 19:43:52;;;;;;;;;;;5.60;99.90;;;;;;8369700;28;19977;-72
2022/01/24 19:47:55;;;;;;;;;;;5.60;99.90;;;;;;8374764;28;19985;-72
2022/01/24 19:52:00;;;;;;;;;;;5.60;99.90;;;;;;8356742;28;21636;-72
2022/01/24 19:56:18;;;;;;;;;;;5.60;99.90;;;;;;8354039;28;19932;-72
2022/01/24 20:00:20;;;;;;;;;;;5.60;99.90;;;;;;8354911;28;19924;-72
2022/01/24 20:04:21;;;;;;;;;;;5.50;99.90;;;;;;8356406;28;20391;-72
2022/01/24 20:08:23;;;;;;;;;;;5.50;99.90;;;;;;8358345;28;19928;-72
2022/01/24 20:12:25;;;;;;;;;;;5.50;99.90;;;;;;8335699;28;20553;-72
2022/01/24 20:16:27;;;;;;;;;;;5.50;99.90;;;;;;8353038;28;19982;-72
2022/01/24 20:20:29;;;;;;;;;;;5.50;99.90;;;;;;8368799;28;19997;-72
2022/01/24 20:24:31;;;;;;;;;;;5.50;99.90;;;;;;8369781;28;19928;-72
2022/01/24 20:28:33;;;;;;;;;;;5.50;99.90;;;;;;8341800;28;20043;-72
2022/01/24 20:32:35;;;;;;;;;;;5.50;99.90;;;;;;8345967;28;20039;-72
2022/01/24 20:36:36;;;;;;;;;;;5.40;99.90;;;;;;8356734;28;19962;-72
2022/01/24 20:40:39;;;;;;;;;;;5.40;99.90;;;;;;8363814;28;19972;-72
2022/01/24 20:44:40;;;;;;;;;;;5.40;99.90;;;;;;8361229;28;19928;-72
2022/01/24 20:48:42;;;;;;;;;;;5.40;99.90;;;;;;8364295;28;19986;-72
2022/01/24 20:52:45;;;;;;;;;;;5.40;99.90;;;;;;8359556;28;20351;-72
2022/01/24 20:56:47;;;;;;;;;;;5.40;99.90;;;;;;8365102;28;20363;-72
2022/01/24 21:00:49;;;;;;;;;;;5.40;99.90;;;;;;8354728;28;19968;-72
2022/01/24 21:04:51;;;;;;;;;;;5.40;99.90;;;;;;8342474;28;19932;-72
2022/01/24 21:08:52;;;;;;;;;;;5.40;99.90;;;;;;8358509;28;19971;-72
2022/01/24 21:12:57;;;;;;;;;;;5.40;99.90;;;;;;8360061;28;19929;-72
2022/01/24 21:16:59;;;;;;;;;;;5.40;99.90;;;;;;8363386;28;19931;-72
2022/01/24 21:21:00;;;;;;;;;;;5.40;99.90;;;;;;8356647;28;19952;-72
2022/01/24 21:25:03;;;;;;;;;;;5.40;99.90;;;;;;8359526;28;20387;-72
2022/01/24 21:29:04;;;;;;;;;;;5.40;99.90;;;;;;8341006;28;19933;-73
2022/01/24 21:33:14;;;;;;;;;;;5.30;99.90;;;;;;8359494;28;20654;-71
2022/01/24 21:37:15;;;;;;;;;;;5.30;99.90;;;;;;8360727;28;19973;-72
2022/01/24 21:41:20;;;;;;;;;;;5.30;99.90;;;;;;8341890;28;19964;-72
2022/01/24 21:45:23;;;;;;;;;;;5.30;99.90;;;;;;8354138;28;19970;-72
2022/01/24 21:49:24;;;;;;;;;;;5.30;99.90;;;;;;8344357;28;19932;-72
2022/01/24 21:53:26;;;;;;;;;;;5.30;99.90;;;;;;8339627;28;20010;-72
2022/01/24 21:57:28;;;;;;;;;;;5.30;99.90;;;;;;8361140;28;20019;-72
2022/01/24 22:01:30;;;;;;;;;;;5.30;99.90;;;;;;8360632;28;19924;-72
2022/01/24 22:05:33;;;;;;;;;;;5.30;99.90;;;;;;8369624;28;20329;-72
2022/01/24 22:09:34;;;;;;;;;;;5.30;99.90;;;;;;8388554;28;20046;-72
2022/01/24 22:13:48;;;;;;;;;;;5.30;99.90;;;;;;8392670;28;19968;-72
2022/01/24 22:17:50;;;;;;;;;;;5.30;99.90;;;;;;8374273;28;19944;-72
2022/01/24 22:21:51;;;;;;;;;;;5.30;99.90;;;;;;8389484;28;19959;-72
2022/01/24 22:25:55;;;;;;;;;;;5.20;99.90;;;;;;8392823;28;19960;-72
2022/01/24 22:29:56;;;;;;;;;;;5.20;99.90;;;;;;8388802;28;20388;-72
2022/01/24 22:33:59;;;;;;;;;;;5.30;99.90;;;;;;8366354;28;19932;-72
2022/01/24 22:38:00;;;;;;;;;;;5.20;99.90;;;;;;8394989;28;19924;-72
2022/01/24 22:42:03;;;;;;;;;;;5.20;99.90;;;;;;8389374;28;19968;-71
2022/01/24 22:46:06;;;;;;;;;;;5.20;99.90;;;;;;8375090;28;19937;-72
2022/01/24 22:50:08;;;;;;;;;;;5.20;99.90;;;;;;8394816;28;20263;-71
2022/01/24 22:54:10;;;;;;;;;;;5.20;99.90;;;;;;8377055;28;20007;-72
2022/01/24 22:58:12;;;;;;;;;;;5.20;99.90;;;;;;8372023;28;20398;-72
2022/01/24 23:02:15;;;;;;;;;;;5.20;99.90;;;;;;8382971;28;19925;-72
2022/01/24 23:06:16;;;;;;;;;;;5.20;99.90;;;;;;8389792;28;19928;-72
2022/01/24 23:10:18;;;;;;;;;;;5.20;99.90;;;;;;8385837;28;20280;-72
2022/01/24 23:19:09;;;;;;;;;;;5.10;99.90;;;;;;8390884;28;19947;-71
2022/01/24 23:23:10;;;;;;;;;;;5.10;99.90;;;;;;8389210;28;20375;-72
2022/01/24 23:31:17;;;;;;;;;;;5.10;99.90;;;;;;8389181;28;19936;-72
2022/01/24 23:39:41;;;;;;;;;;;5.10;99.90;;;;;;8386819;28;20333;-72
2022/01/24 23:43:48;;;;;;;;;;;5.10;99.90;;;;;;8389593;28;19979;-72
2022/01/24 23:47:50;;;;;;;;;;;5.10;99.90;;;;;;8368041;28;19944;-72
2022/01/24 23:51:51;;;;;;;;;;;5.00;99.90;;;;;;8370281;28;19931;-72
2022/01/24 23:55:53;;;;;;;;;;;5.10;99.90;;;;;;8393241;28;20337;-72
